sensor_id;sensor_type;location;lat;lon;timestamp;P1;durP1;ratioP1;P2;durP2;ratioP2
75823;SDS011;64457;51.976;9.834;2023-05-31T00:02:07;18.50;;;8.20;;
75823;SDS011;64457;51.976;9.834;2023-05-31T00:04:35;17.40;;;7.87;;
75823;SDS011;64457;51.976;9.834;2023-05-31T00:07:04;21.40;;;7.93;;
75823;SDS011;64457;51.976;9.834;2023-05-31T00:09:36;18.90;;;7.93;;
75823;SDS011;64457;51.976;9.834;2023-05-31T00:12:04;20.37;;;7.80;;
75823;SDS011;64457;51.976;9.834;2023-05-31T00:14:37;20.77;;;7.83;;
75823;SDS011;64457;51.976;9.834;2023-05-31T00:17:10;15.00;;;6.93;;
75823;SDS011;64457;51.976;9.834;2023-05-31T00:19:38;18.07;;;8.10;;
75823;SDS011;64457;51.976;9.834;2023-05-31T00:22:08;22.97;;;8.50;;
75823;SDS011;64457;51.976;9.834;2023-05-31T00:24:36;17.87;;;7.97;;
75823;SDS011;64457;51.976;9.834;2023-05-31T00:27:05;19.63;;;8.97;;
75823;SDS011;64457;51.976;9.834;2023-05-31T00:29:36;19.13;;;9.57;;
75823;SDS011;64457;51.976;9.834;2023-05-31T00:32:04;18.17;;;8.33;;
75823;SDS011;64457;51.976;9.834;2023-05-31T00:34:36;17.60;;;7.80;;
75823;SDS011;64457;51.976;9.834;2023-05-31T00:37:04;18.10;;;7.80;;
75823;SDS011;64457;51.976;9.834;2023-05-31T00:39:34;18.30;;;8.23;;
75823;SDS011;64457;51.976;9.834;2023-05-31T00:42:02;18.63;;;7.73;;
75823;SDS011;64457;51.976;9.834;2023-05-31T00:44:31;16.93;;;7.80;;
75823;SDS011;64457;51.976;9.834;2023-05-31T00:47:00;21.33;;;8.77;;
75823;SDS011;64457;51.976;9.834;2023-05-31T00:49:28;20.50;;;9.23;;
75823;SDS011;64457;51.976;9.834;2023-05-31T00:51:59;22.67;;;9.53;;
75823;SDS011;64457;51.976;9.834;2023-05-31T00:54:28;26.90;;;10.30;;
75823;SDS011;64457;51.976;9.834;2023-05-31T00:56:56;25.67;;;10.53;;
75823;SDS011;64457;51.976;9.834;2023-05-31T00:59:24;21.73;;;10.10;;
75823;SDS011;64457;51.976;9.834;2023-05-31T01:01:52;27.93;;;10.57;;
75823;SDS011;64457;51.976;9.834;2023-05-31T01:04:22;18.30;;;7.90;;
75823;SDS011;64457;51.976;9.834;2023-05-31T01:06:51;17.57;;;7.93;;
75823;SDS011;64457;51.976;9.834;2023-05-31T01:09:20;15.37;;;7.70;;
75823;SDS011;64457;51.976;9.834;2023-05-31T01:11:56;18.93;;;7.33;;
75823;SDS011;64457;51.976;9.834;2023-05-31T01:14:38;19.73;;;7.30;;
75823;SDS011;64457;51.976;9.834;2023-05-31T01:17:17;22.07;;;8.87;;
75823;SDS011;64457;51.976;9.834;2023-05-31T01:19:56;21.73;;;8.03;;
75823;SDS011;64457;51.976;9.834;2023-05-31T01:22:33;20.50;;;9.17;;
75823;SDS011;64457;51.976;9.834;2023-05-31T01:25:25;18.17;;;9.20;;
75823;SDS011;64457;51.976;9.834;2023-05-31T01:28:05;20.23;;;8.67;;
75823;SDS011;64457;51.976;9.834;2023-05-31T01:30:34;21.80;;;8.87;;
75823;SDS011;64457;51.976;9.834;2023-05-31T01:33:04;28.33;;;9.90;;
75823;SDS011;64457;51.976;9.834;2023-05-31T01:35:38;18.57;;;8.90;;
75823;SDS011;64457;51.976;9.834;2023-05-31T01:38:05;19.10;;;8.60;;
75823;SDS011;64457;51.976;9.834;2023-05-31T01:40:33;18.20;;;8.20;;
75823;SDS011;64457;51.976;9.834;2023-05-31T01:43:02;20.93;;;8.30;;
75823;SDS011;64457;51.976;9.834;2023-05-31T01:45:32;20.47;;;9.10;;
75823;SDS011;64457;51.976;9.834;2023-05-31T01:48:02;19.00;;;8.53;;
75823;SDS011;64457;51.976;9.834;2023-05-31T01:50:32;23.10;;;8.93;;
75823;SDS011;64457;51.976;9.834;2023-05-31T01:53:02;21.13;;;8.97;;
75823;SDS011;64457;51.976;9.834;2023-05-31T01:55:31;20.60;;;8.60;;
75823;SDS011;64457;51.976;9.834;2023-05-31T01:57:59;18.70;;;8.43;;
75823;SDS011;64457;51.976;9.834;2023-05-31T02:00:31;19.90;;;9.37;;
75823;SDS011;64457;51.976;9.834;2023-05-31T02:02:59;19.87;;;9.57;;
75823;SDS011;64457;51.976;9.834;2023-05-31T02:05:28;18.83;;;9.07;;
75823;SDS011;64457;51.976;9.834;2023-05-31T02:07:55;18.97;;;8.30;;
75823;SDS011;64457;51.976;9.834;2023-05-31T02:10:23;19.20;;;8.43;;
75823;SDS011;64457;51.976;9.834;2023-05-31T02:12:51;19.90;;;8.90;;
75823;SDS011;64457;51.976;9.834;2023-05-31T02:15:20;18.50;;;8.33;;
75823;SDS011;64457;51.976;9.834;2023-05-31T02:17:51;23.63;;;10.10;;
75823;SDS011;64457;51.976;9.834;2023-05-31T02:20:19;23.33;;;10.97;;
75823;SDS011;64457;51.976;9.834;2023-05-31T02:22:49;23.33;;;10.17;;
75823;SDS011;64457;51.976;9.834;2023-05-31T02:25:17;22.50;;;11.03;;
75823;SDS011;64457;51.976;9.834;2023-05-31T02:27:45;24.67;;;11.03;;
75823;SDS011;64457;51.976;9.834;2023-05-31T02:30:12;24.07;;;11.33;;
75823;SDS011;64457;51.976;9.834;2023-05-31T02:32:40;23.80;;;11.40;;
75823;SDS011;64457;51.976;9.834;2023-05-31T02:35:11;29.60;;;11.33;;
75823;SDS011;64457;51.976;9.834;2023-05-31T02:37:39;22.10;;;10.93;;
75823;SDS011;64457;51.976;9.834;2023-05-31T02:40:07;23.80;;;10.97;;
75823;SDS011;64457;51.976;9.834;2023-05-31T02:42:35;22.73;;;10.93;;
75823;SDS011;64457;51.976;9.834;2023-05-31T02:45:08;26.03;;;11.13;;
75823;SDS011;64457;51.976;9.834;2023-05-31T02:47:37;23.27;;;11.50;;
75823;SDS011;64457;51.976;9.834;2023-05-31T02:50:06;26.23;;;12.53;;
75823;SDS011;64457;51.976;9.834;2023-05-31T02:52:37;22.13;;;11.30;;
75823;SDS011;64457;51.976;9.834;2023-05-31T02:55:07;23.77;;;11.53;;
75823;SDS011;64457;51.976;9.834;2023-05-31T02:57:35;28.17;;;11.63;;
75823;SDS011;64457;51.976;9.834;2023-05-31T03:00:04;23.67;;;10.90;;
75823;SDS011;64457;51.976;9.834;2023-05-31T03:02:38;21.90;;;10.37;;
75823;SDS011;64457;51.976;9.834;2023-05-31T03:05:06;19.63;;;10.17;;
75823;SDS011;64457;51.976;9.834;2023-05-31T03:07:39;19.00;;;9.37;;
75823;SDS011;64457;51.976;9.834;2023-05-31T03:10:07;24.53;;;10.27;;
75823;SDS011;64457;51.976;9.834;2023-05-31T03:12:36;24.37;;;10.07;;
75823;SDS011;64457;51.976;9.834;2023-05-31T03:15:04;28.90;;;10.47;;
75823;SDS011;64457;51.976;9.834;2023-05-31T03:17:33;21.70;;;10.73;;
75823;SDS011;64457;51.976;9.834;2023-05-31T03:20:03;24.00;;;9.57;;
75823;SDS011;64457;51.976;9.834;2023-05-31T03:22:34;21.63;;;9.23;;
75823;SDS011;64457;51.976;9.834;2023-05-31T03:25:04;22.63;;;10.20;;
75823;SDS011;64457;51.976;9.834;2023-05-31T03:27:33;20.80;;;10.00;;
75823;SDS011;64457;51.976;9.834;2023-05-31T03:30:01;19.50;;;9.73;;
75823;SDS011;64457;51.976;9.834;2023-05-31T03:32:32;21.97;;;10.40;;
75823;SDS011;64457;51.976;9.834;2023-05-31T03:35:00;21.83;;;10.17;;
75823;SDS011;64457;51.976;9.834;2023-05-31T03:37:28;24.27;;;9.87;;
75823;SDS011;64457;51.976;9.834;2023-05-31T03:39:56;21.33;;;9.57;;
75823;SDS011;64457;51.976;9.834;2023-05-31T03:42:27;22.83;;;10.27;;
75823;SDS011;64457;51.976;9.834;2023-05-31T03:44:56;21.03;;;10.30;;
75823;SDS011;64457;51.976;9.834;2023-05-31T03:47:24;23.80;;;9.43;;
75823;SDS011;64457;51.976;9.834;2023-05-31T03:49:53;21.40;;;10.20;;
75823;SDS011;64457;51.976;9.834;2023-05-31T03:52:21;18.07;;;9.20;;
75823;SDS011;64457;51.976;9.834;2023-05-31T03:54:49;20.30;;;9.03;;
75823;SDS011;64457;51.976;9.834;2023-05-31T03:57:17;21.07;;;10.43;;
75823;SDS011;64457;51.976;9.834;2023-05-31T03:59:46;28.07;;;9.50;;
75823;SDS011;64457;51.976;9.834;2023-05-31T04:02:14;23.33;;;9.87;;
75823;SDS011;64457;51.976;9.834;2023-05-31T04:04:42;20.80;;;10.10;;
75823;SDS011;64457;51.976;9.834;2023-05-31T04:07:11;18.87;;;9.30;;
75823;SDS011;64457;51.976;9.834;2023-05-31T04:09:41;16.80;;;8.93;;
75823;SDS011;64457;51.976;9.834;2023-05-31T04:12:09;20.83;;;9.33;;
75823;SDS011;64457;51.976;9.834;2023-05-31T04:14:37;23.57;;;10.77;;
75823;SDS011;64457;51.976;9.834;2023-05-31T04:17:07;23.23;;;10.60;;
75823;SDS011;64457;51.976;9.834;2023-05-31T04:19:34;22.50;;;10.10;;
75823;SDS011;64457;51.976;9.834;2023-05-31T04:22:04;23.27;;;10.47;;
75823;SDS011;64457;51.976;9.834;2023-05-31T04:24:31;25.53;;;10.80;;
75823;SDS011;64457;51.976;9.834;2023-05-31T04:26:59;20.80;;;9.60;;
75823;SDS011;64457;51.976;9.834;2023-05-31T04:29:28;22.30;;;10.00;;
75823;SDS011;64457;51.976;9.834;2023-05-31T04:32:00;22.47;;;10.30;;
75823;SDS011;64457;51.976;9.834;2023-05-31T04:34:29;20.87;;;10.33;;
75823;SDS011;64457;51.976;9.834;2023-05-31T04:36:57;21.10;;;9.33;;
75823;SDS011;64457;51.976;9.834;2023-05-31T04:39:25;22.67;;;10.80;;
75823;SDS011;64457;51.976;9.834;2023-05-31T04:41:52;20.90;;;10.13;;
75823;SDS011;64457;51.976;9.834;2023-05-31T04:44:20;22.23;;;10.03;;
75823;SDS011;64457;51.976;9.834;2023-05-31T04:46:48;24.60;;;9.20;;
75823;SDS011;64457;51.976;9.834;2023-05-31T04:49:16;24.30;;;10.20;;
75823;SDS011;64457;51.976;9.834;2023-05-31T04:51:45;22.47;;;9.60;;
75823;SDS011;64457;51.976;9.834;2023-05-31T04:54:13;21.40;;;10.40;;
75823;SDS011;64457;51.976;9.834;2023-05-31T04:56:40;23.03;;;10.23;;
75823;SDS011;64457;51.976;9.834;2023-05-31T04:59:08;26.23;;;11.13;;
75823;SDS011;64457;51.976;9.834;2023-05-31T05:01:36;25.77;;;10.30;;
75823;SDS011;64457;51.976;9.834;2023-05-31T05:04:04;23.77;;;11.27;;
75823;SDS011;64457;51.976;9.834;2023-05-31T05:06:35;24.70;;;11.47;;
75823;SDS011;64457;51.976;9.834;2023-05-31T05:09:04;22.37;;;11.10;;
75823;SDS011;64457;51.976;9.834;2023-05-31T05:11:32;24.10;;;10.03;;
75823;SDS011;64457;51.976;9.834;2023-05-31T05:14:02;24.50;;;10.57;;
75823;SDS011;64457;51.976;9.834;2023-05-31T05:16:29;26.63;;;10.90;;
75823;SDS011;64457;51.976;9.834;2023-05-31T05:18:57;22.03;;;10.67;;
75823;SDS011;64457;51.976;9.834;2023-05-31T05:21:24;20.80;;;10.07;;
75823;SDS011;64457;51.976;9.834;2023-05-31T05:23:54;23.20;;;11.10;;
75823;SDS011;64457;51.976;9.834;2023-05-31T05:26:22;25.03;;;10.00;;
75823;SDS011;64457;51.976;9.834;2023-05-31T05:28:51;21.00;;;10.40;;
75823;SDS011;64457;51.976;9.834;2023-05-31T05:31:18;22.90;;;10.67;;
75823;SDS011;64457;51.976;9.834;2023-05-31T05:33:46;29.53;;;10.17;;
75823;SDS011;64457;51.976;9.834;2023-05-31T05:36:14;23.83;;;9.93;;
75823;SDS011;64457;51.976;9.834;2023-05-31T05:38:41;20.73;;;8.53;;
75823;SDS011;64457;51.976;9.834;2023-05-31T05:41:10;19.80;;;8.50;;
75823;SDS011;64457;51.976;9.834;2023-05-31T05:43:39;22.00;;;7.50;;
75823;SDS011;64457;51.976;9.834;2023-05-31T05:46:07;16.30;;;7.17;;
75823;SDS011;64457;51.976;9.834;2023-05-31T05:48:34;19.73;;;6.50;;
75823;SDS011;64457;51.976;9.834;2023-05-31T05:51:02;17.57;;;7.00;;
75823;SDS011;64457;51.976;9.834;2023-05-31T05:53:31;17.03;;;6.50;;
75823;SDS011;64457;51.976;9.834;2023-05-31T05:55:58;15.70;;;7.40;;
75823;SDS011;64457;51.976;9.834;2023-05-31T05:58:26;20.40;;;6.83;;
75823;SDS011;64457;51.976;9.834;2023-05-31T06:00:55;16.00;;;7.10;;
75823;SDS011;64457;51.976;9.834;2023-05-31T06:03:24;19.80;;;6.57;;
75823;SDS011;64457;51.976;9.834;2023-05-31T06:05:52;14.87;;;6.03;;
75823;SDS011;64457;51.976;9.834;2023-05-31T06:08:21;16.33;;;6.63;;
75823;SDS011;64457;51.976;9.834;2023-05-31T06:10:49;15.20;;;5.97;;
75823;SDS011;64457;51.976;9.834;2023-05-31T06:13:16;15.40;;;5.10;;
75823;SDS011;64457;51.976;9.834;2023-05-31T06:15:44;14.07;;;4.57;;
75823;SDS011;64457;51.976;9.834;2023-05-31T06:18:14;15.93;;;5.90;;
75823;SDS011;64457;51.976;9.834;2023-05-31T06:20:42;13.80;;;4.73;;
75823;SDS011;64457;51.976;9.834;2023-05-31T06:23:10;13.23;;;5.80;;
75823;SDS011;64457;51.976;9.834;2023-05-31T06:25:37;13.07;;;4.90;;
75823;SDS011;64457;51.976;9.834;2023-05-31T06:28:06;14.67;;;5.20;;
75823;SDS011;64457;51.976;9.834;2023-05-31T06:30:33;14.97;;;5.40;;
75823;SDS011;64457;51.976;9.834;2023-05-31T06:33:01;11.30;;;4.90;;
75823;SDS011;64457;51.976;9.834;2023-05-31T06:35:31;14.50;;;4.90;;
75823;SDS011;64457;51.976;9.834;2023-05-31T06:37:58;12.43;;;4.87;;
75823;SDS011;64457;51.976;9.834;2023-05-31T06:40:28;11.10;;;5.10;;
75823;SDS011;64457;51.976;9.834;2023-05-31T06:42:55;12.10;;;5.00;;
75823;SDS011;64457;51.976;9.834;2023-05-31T06:45:24;12.57;;;4.80;;
75823;SDS011;64457;51.976;9.834;2023-05-31T06:47:52;11.13;;;4.77;;
75823;SDS011;64457;51.976;9.834;2023-05-31T06:50:20;11.67;;;4.50;;
75823;SDS011;64457;51.976;9.834;2023-05-31T06:52:49;9.93;;;4.10;;
75823;SDS011;64457;51.976;9.834;2023-05-31T06:55:16;11.33;;;4.43;;
75823;SDS011;64457;51.976;9.834;2023-05-31T06:57:44;10.97;;;4.40;;
75823;SDS011;64457;51.976;9.834;2023-05-31T07:00:12;14.53;;;4.87;;
75823;SDS011;64457;51.976;9.834;2023-05-31T07:02:42;9.30;;;4.37;;
75823;SDS011;64457;51.976;9.834;2023-05-31T07:05:09;10.23;;;4.53;;
75823;SDS011;64457;51.976;9.834;2023-05-31T07:07:37;8.80;;;4.00;;
75823;SDS011;64457;51.976;9.834;2023-05-31T07:10:08;11.20;;;4.33;;
75823;SDS011;64457;51.976;9.834;2023-05-31T07:12:36;9.67;;;4.13;;
75823;SDS011;64457;51.976;9.834;2023-05-31T07:15:05;11.23;;;4.30;;
75823;SDS011;64457;51.976;9.834;2023-05-31T07:17:37;11.27;;;4.07;;
75823;SDS011;64457;51.976;9.834;2023-05-31T07:20:05;12.20;;;4.10;;
75823;SDS011;64457;51.976;9.834;2023-05-31T07:22:35;17.53;;;3.80;;
75823;SDS011;64457;51.976;9.834;2023-05-31T07:25:03;10.07;;;3.77;;
75823;SDS011;64457;51.976;9.834;2023-05-31T07:27:35;12.10;;;4.70;;
75823;SDS011;64457;51.976;9.834;2023-05-31T07:30:03;12.27;;;4.70;;
75823;SDS011;64457;51.976;9.834;2023-05-31T07:32:33;10.30;;;3.70;;
75823;SDS011;64457;51.976;9.834;2023-05-31T07:35:02;8.60;;;3.03;;
75823;SDS011;64457;51.976;9.834;2023-05-31T07:37:31;10.37;;;3.63;;
75823;SDS011;64457;51.976;9.834;2023-05-31T07:39:59;11.00;;;3.40;;
75823;SDS011;64457;51.976;9.834;2023-05-31T07:42:30;10.57;;;3.60;;
75823;SDS011;64457;51.976;9.834;2023-05-31T07:44:59;9.47;;;3.17;;
75823;SDS011;64457;51.976;9.834;2023-05-31T07:47:27;8.73;;;2.90;;
75823;SDS011;64457;51.976;9.834;2023-05-31T07:49:56;10.30;;;3.30;;
75823;SDS011;64457;51.976;9.834;2023-05-31T07:52:24;7.97;;;3.20;;
75823;SDS011;64457;51.976;9.834;2023-05-31T07:54:52;8.90;;;3.20;;
75823;SDS011;64457;51.976;9.834;2023-05-31T07:57:19;13.23;;;4.03;;
75823;SDS011;64457;51.976;9.834;2023-05-31T07:59:48;9.17;;;3.33;;
75823;SDS011;64457;51.976;9.834;2023-05-31T08:02:20;7.13;;;2.57;;
75823;SDS011;64457;51.976;9.834;2023-05-31T08:04:48;8.40;;;2.30;;
75823;SDS011;64457;51.976;9.834;2023-05-31T08:07:15;11.23;;;3.70;;
75823;SDS011;64457;51.976;9.834;2023-05-31T08:09:43;6.63;;;2.47;;
75823;SDS011;64457;51.976;9.834;2023-05-31T08:12:12;8.57;;;2.63;;
75823;SDS011;64457;51.976;9.834;2023-05-31T08:14:40;6.93;;;2.57;;
75823;SDS011;64457;51.976;9.834;2023-05-31T08:17:09;7.13;;;2.67;;
75823;SDS011;64457;51.976;9.834;2023-05-31T08:19:39;6.87;;;2.43;;
75823;SDS011;64457;51.976;9.834;2023-05-31T08:22:07;11.87;;;2.83;;
75823;SDS011;64457;51.976;9.834;2023-05-31T08:24:36;14.60;;;3.30;;
75823;SDS011;64457;51.976;9.834;2023-05-31T08:27:04;9.20;;;2.50;;
75823;SDS011;64457;51.976;9.834;2023-05-31T08:29:32;7.50;;;2.40;;
75823;SDS011;64457;51.976;9.834;2023-05-31T08:32:01;9.97;;;2.80;;
75823;SDS011;64457;51.976;9.834;2023-05-31T08:34:28;7.93;;;2.90;;
75823;SDS011;64457;51.976;9.834;2023-05-31T08:37:00;11.40;;;2.60;;
75823;SDS011;64457;51.976;9.834;2023-05-31T08:39:28;8.83;;;2.80;;
75823;SDS011;64457;51.976;9.834;2023-05-31T08:41:58;6.73;;;2.00;;
75823;SDS011;64457;51.976;9.834;2023-05-31T08:44:27;8.27;;;3.00;;
75823;SDS011;64457;51.976;9.834;2023-05-31T08:46:57;6.93;;;2.20;;
75823;SDS011;64457;51.976;9.834;2023-05-31T08:49:28;6.23;;;2.20;;
75823;SDS011;64457;51.976;9.834;2023-05-31T08:52:00;8.40;;;2.30;;
75823;SDS011;64457;51.976;9.834;2023-05-31T08:54:29;7.60;;;2.17;;
75823;SDS011;64457;51.976;9.834;2023-05-31T08:56:56;11.77;;;2.20;;
75823;SDS011;64457;51.976;9.834;2023-05-31T08:59:25;14.93;;;2.23;;
75823;SDS011;64457;51.976;9.834;2023-05-31T09:01:53;7.80;;;2.17;;
75823;SDS011;64457;51.976;9.834;2023-05-31T09:04:21;7.40;;;2.33;;
75823;SDS011;64457;51.976;9.834;2023-05-31T09:06:49;6.80;;;2.00;;
75823;SDS011;64457;51.976;9.834;2023-05-31T09:09:19;7.97;;;1.90;;
75823;SDS011;64457;51.976;9.834;2023-05-31T09:11:47;12.13;;;2.77;;
75823;SDS011;64457;51.976;9.834;2023-05-31T09:14:15;6.30;;;2.03;;
75823;SDS011;64457;51.976;9.834;2023-05-31T09:16:43;9.30;;;2.17;;
75823;SDS011;64457;51.976;9.834;2023-05-31T09:19:11;9.03;;;2.40;;
75823;SDS011;64457;51.976;9.834;2023-05-31T09:21:39;9.60;;;2.27;;
75823;SDS011;64457;51.976;9.834;2023-05-31T09:24:12;7.07;;;2.07;;
75823;SDS011;64457;51.976;9.834;2023-05-31T09:26:49;10.37;;;2.40;;
75823;SDS011;64457;51.976;9.834;2023-05-31T09:29:20;11.27;;;2.40;;
75823;SDS011;64457;51.976;9.834;2023-05-31T09:31:48;8.97;;;2.30;;
75823;SDS011;64457;51.976;9.834;2023-05-31T09:34:24;7.70;;;2.33;;
75823;SDS011;64457;51.976;9.834;2023-05-31T09:36:56;11.83;;;2.33;;
75823;SDS011;64457;51.976;9.834;2023-05-31T09:39:24;12.57;;;2.70;;
75823;SDS011;64457;51.976;9.834;2023-05-31T09:41:56;9.37;;;2.60;;
75823;SDS011;64457;51.976;9.834;2023-05-31T09:44:25;10.77;;;2.90;;
75823;SDS011;64457;51.976;9.834;2023-05-31T09:46:53;15.60;;;3.60;;
75823;SDS011;64457;51.976;9.834;2023-05-31T09:49:22;13.70;;;3.20;;
75823;SDS011;64457;51.976;9.834;2023-05-31T09:51:50;9.40;;;2.40;;
75823;SDS011;64457;51.976;9.834;2023-05-31T09:54:18;8.93;;;2.23;;
75823;SDS011;64457;51.976;9.834;2023-05-31T09:56:50;8.87;;;2.37;;
75823;SDS011;64457;51.976;9.834;2023-05-31T09:59:20;9.47;;;2.43;;
75823;SDS011;64457;51.976;9.834;2023-05-31T10:01:48;9.73;;;2.60;;
75823;SDS011;64457;51.976;9.834;2023-05-31T10:04:17;16.33;;;2.60;;
75823;SDS011;64457;51.976;9.834;2023-05-31T10:06:46;8.50;;;2.33;;
75823;SDS011;64457;51.976;9.834;2023-05-31T10:09:15;13.20;;;2.40;;
75823;SDS011;64457;51.976;9.834;2023-05-31T10:11:44;8.73;;;2.23;;
75823;SDS011;64457;51.976;9.834;2023-05-31T10:14:18;8.10;;;2.07;;
75823;SDS011;64457;51.976;9.834;2023-05-31T10:16:53;10.23;;;2.10;;
75823;SDS011;64457;51.976;9.834;2023-05-31T10:19:23;9.37;;;2.20;;
75823;SDS011;64457;51.976;9.834;2023-05-31T10:21:55;11.37;;;2.90;;
75823;SDS011;64457;51.976;9.834;2023-05-31T10:24:25;8.10;;;2.33;;
75823;SDS011;64457;51.976;9.834;2023-05-31T10:27:08;11.00;;;2.60;;
75823;SDS011;64457;51.976;9.834;2023-05-31T10:29:46;11.53;;;2.40;;
75823;SDS011;64457;51.976;9.834;2023-05-31T10:32:19;11.30;;;2.63;;
75823;SDS011;64457;51.976;9.834;2023-05-31T10:34:51;8.60;;;2.57;;
75823;SDS011;64457;51.976;9.834;2023-05-31T10:37:19;11.00;;;2.90;;
75823;SDS011;64457;51.976;9.834;2023-05-31T10:39:54;10.00;;;2.17;;
75823;SDS011;64457;51.976;9.834;2023-05-31T10:42:33;14.83;;;2.93;;
75823;SDS011;64457;51.976;9.834;2023-05-31T10:45:12;9.97;;;2.70;;
75823;SDS011;64457;51.976;9.834;2023-05-31T10:47:46;8.73;;;2.10;;
75823;SDS011;64457;51.976;9.834;2023-05-31T10:50:20;11.47;;;2.40;;
75823;SDS011;64457;51.976;9.834;2023-05-31T10:52:48;10.10;;;2.27;;
75823;SDS011;64457;51.976;9.834;2023-05-31T10:55:18;8.20;;;2.13;;
75823;SDS011;64457;51.976;9.834;2023-05-31T10:57:49;8.00;;;2.30;;
75823;SDS011;64457;51.976;9.834;2023-05-31T11:00:21;10.17;;;2.53;;
75823;SDS011;64457;51.976;9.834;2023-05-31T11:02:50;9.60;;;2.20;;
75823;SDS011;64457;51.976;9.834;2023-05-31T11:05:20;10.60;;;1.97;;
75823;SDS011;64457;51.976;9.834;2023-05-31T11:07:50;11.20;;;2.27;;
75823;SDS011;64457;51.976;9.834;2023-05-31T11:10:24;12.00;;;2.20;;
75823;SDS011;64457;51.976;9.834;2023-05-31T11:12:55;17.63;;;2.07;;
75823;SDS011;64457;51.976;9.834;2023-05-31T11:15:39;9.33;;;2.33;;
75823;SDS011;64457;51.976;9.834;2023-05-31T11:18:13;11.67;;;2.73;;
75823;SDS011;64457;51.976;9.834;2023-05-31T11:20:48;7.43;;;2.00;;
75823;SDS011;64457;51.976;9.834;2023-05-31T11:23:25;13.93;;;2.33;;
75823;SDS011;64457;51.976;9.834;2023-05-31T11:26:15;7.90;;;2.23;;
75823;SDS011;64457;51.976;9.834;2023-05-31T11:28:59;10.17;;;2.20;;
75823;SDS011;64457;51.976;9.834;2023-05-31T11:34:33;12.83;;;2.97;;
75823;SDS011;64457;51.976;9.834;2023-05-31T11:37:16;10.53;;;2.20;;
75823;SDS011;64457;51.976;9.834;2023-05-31T11:39:44;14.57;;;2.30;;
75823;SDS011;64457;51.976;9.834;2023-05-31T11:42:12;9.83;;;2.60;;
75823;SDS011;64457;51.976;9.834;2023-05-31T11:44:41;9.90;;;2.10;;
75823;SDS011;64457;51.976;9.834;2023-05-31T11:47:17;8.10;;;2.10;;
75823;SDS011;64457;51.976;9.834;2023-05-31T11:49:47;9.87;;;2.30;;
75823;SDS011;64457;51.976;9.834;2023-05-31T11:52:17;10.10;;;2.23;;
75823;SDS011;64457;51.976;9.834;2023-05-31T11:54:48;10.03;;;2.53;;
75823;SDS011;64457;51.976;9.834;2023-05-31T11:57:18;8.60;;;2.40;;
75823;SDS011;64457;51.976;9.834;2023-05-31T11:59:47;10.43;;;2.30;;
75823;SDS011;64457;51.976;9.834;2023-05-31T12:02:19;7.90;;;2.13;;
75823;SDS011;64457;51.976;9.834;2023-05-31T12:04:50;10.93;;;1.90;;
75823;SDS011;64457;51.976;9.834;2023-05-31T12:07:18;9.97;;;2.20;;
75823;SDS011;64457;51.976;9.834;2023-05-31T12:09:46;8.90;;;2.10;;
75823;SDS011;64457;51.976;9.834;2023-05-31T12:12:15;7.03;;;1.50;;
75823;SDS011;64457;51.976;9.834;2023-05-31T12:14:49;8.77;;;2.03;;
75823;SDS011;64457;51.976;9.834;2023-05-31T12:17:19;8.80;;;1.83;;
75823;SDS011;64457;51.976;9.834;2023-05-31T12:19:47;9.97;;;1.90;;
75823;SDS011;64457;51.976;9.834;2023-05-31T12:22:15;8.87;;;2.10;;
75823;SDS011;64457;51.976;9.834;2023-05-31T12:24:47;9.53;;;2.13;;
75823;SDS011;64457;51.976;9.834;2023-05-31T12:27:15;11.30;;;2.47;;
75823;SDS011;64457;51.976;9.834;2023-05-31T12:29:43;11.43;;;2.37;;
75823;SDS011;64457;51.976;9.834;2023-05-31T12:32:12;10.80;;;2.20;;
75823;SDS011;64457;51.976;9.834;2023-05-31T12:34:42;10.00;;;2.20;;
75823;SDS011;64457;51.976;9.834;2023-05-31T12:37:10;8.80;;;2.33;;
75823;SDS011;64457;51.976;9.834;2023-05-31T12:39:40;7.50;;;1.97;;
75823;SDS011;64457;51.976;9.834;2023-05-31T12:42:08;11.33;;;2.13;;
75823;SDS011;64457;51.976;9.834;2023-05-31T12:44:36;10.30;;;1.70;;
75823;SDS011;64457;51.976;9.834;2023-05-31T12:47:07;11.47;;;2.63;;
75823;SDS011;64457;51.976;9.834;2023-05-31T12:49:35;8.90;;;2.07;;
75823;SDS011;64457;51.976;9.834;2023-05-31T12:52:06;7.67;;;1.93;;
75823;SDS011;64457;51.976;9.834;2023-05-31T12:54:35;11.87;;;2.37;;
75823;SDS011;64457;51.976;9.834;2023-05-31T12:57:05;8.90;;;2.00;;
75823;SDS011;64457;51.976;9.834;2023-05-31T12:59:35;12.90;;;2.00;;
75823;SDS011;64457;51.976;9.834;2023-05-31T13:02:05;8.43;;;2.10;;
75823;SDS011;64457;51.976;9.834;2023-05-31T13:04:33;10.00;;;2.43;;
75823;SDS011;64457;51.976;9.834;2023-05-31T13:07:02;11.20;;;1.93;;
75823;SDS011;64457;51.976;9.834;2023-05-31T13:09:31;8.23;;;1.97;;
75823;SDS011;64457;51.976;9.834;2023-05-31T13:11:59;8.73;;;2.10;;
75823;SDS011;64457;51.976;9.834;2023-05-31T13:14:27;13.83;;;1.57;;
75823;SDS011;64457;51.976;9.834;2023-05-31T13:16:54;8.87;;;1.80;;
75823;SDS011;64457;51.976;9.834;2023-05-31T13:19:22;9.53;;;1.80;;
75823;SDS011;64457;51.976;9.834;2023-05-31T13:21:50;10.33;;;1.73;;
75823;SDS011;64457;51.976;9.834;2023-05-31T13:24:22;13.23;;;2.47;;
75823;SDS011;64457;51.976;9.834;2023-05-31T13:26:49;6.90;;;1.87;;
75823;SDS011;64457;51.976;9.834;2023-05-31T13:29:17;6.87;;;1.90;;
75823;SDS011;64457;51.976;9.834;2023-05-31T13:31:47;15.70;;;2.00;;
75823;SDS011;64457;51.976;9.834;2023-05-31T13:34:14;8.17;;;2.10;;
75823;SDS011;64457;51.976;9.834;2023-05-31T13:36:42;7.53;;;1.50;;
75823;SDS011;64457;51.976;9.834;2023-05-31T13:39:13;9.03;;;1.80;;
75823;SDS011;64457;51.976;9.834;2023-05-31T13:41:43;11.63;;;2.20;;
75823;SDS011;64457;51.976;9.834;2023-05-31T13:44:11;7.30;;;1.73;;
75823;SDS011;64457;51.976;9.834;2023-05-31T13:46:40;9.73;;;1.60;;
75823;SDS011;64457;51.976;9.834;2023-05-31T13:49:09;7.80;;;1.70;;
75823;SDS011;64457;51.976;9.834;2023-05-31T13:51:40;10.40;;;1.53;;
75823;SDS011;64457;51.976;9.834;2023-05-31T13:54:08;8.87;;;1.87;;
75823;SDS011;64457;51.976;9.834;2023-05-31T13:56:36;10.63;;;2.07;;
75823;SDS011;64457;51.976;9.834;2023-05-31T13:59:06;7.03;;;1.80;;
75823;SDS011;64457;51.976;9.834;2023-05-31T14:01:34;8.83;;;1.80;;
75823;SDS011;64457;51.976;9.834;2023-05-31T14:04:04;9.17;;;1.93;;
75823;SDS011;64457;51.976;9.834;2023-05-31T14:06:32;7.00;;;1.53;;
75823;SDS011;64457;51.976;9.834;2023-05-31T14:09:01;7.57;;;1.80;;
75823;SDS011;64457;51.976;9.834;2023-05-31T14:11:28;11.80;;;2.07;;
75823;SDS011;64457;51.976;9.834;2023-05-31T14:13:57;6.87;;;1.73;;
75823;SDS011;64457;51.976;9.834;2023-05-31T14:16:27;9.07;;;1.80;;
75823;SDS011;64457;51.976;9.834;2023-05-31T14:18:55;7.10;;;1.70;;
75823;SDS011;64457;51.976;9.834;2023-05-31T14:21:22;7.20;;;1.67;;
75823;SDS011;64457;51.976;9.834;2023-05-31T14:23:51;9.23;;;2.07;;
75823;SDS011;64457;51.976;9.834;2023-05-31T14:26:19;8.00;;;1.63;;
75823;SDS011;64457;51.976;9.834;2023-05-31T14:28:47;7.30;;;1.60;;
75823;SDS011;64457;51.976;9.834;2023-05-31T14:31:15;10.83;;;1.90;;
75823;SDS011;64457;51.976;9.834;2023-05-31T14:33:44;7.40;;;1.63;;
75823;SDS011;64457;51.976;9.834;2023-05-31T14:36:12;6.87;;;1.40;;
75823;SDS011;64457;51.976;9.834;2023-05-31T14:38:40;7.40;;;1.47;;
75823;SDS011;64457;51.976;9.834;2023-05-31T14:41:08;6.77;;;1.60;;
75823;SDS011;64457;51.976;9.834;2023-05-31T14:43:36;9.77;;;1.77;;
75823;SDS011;64457;51.976;9.834;2023-05-31T14:46:05;9.00;;;1.63;;
75823;SDS011;64457;51.976;9.834;2023-05-31T14:48:32;6.77;;;1.60;;
75823;SDS011;64457;51.976;9.834;2023-05-31T14:51:02;7.87;;;1.73;;
75823;SDS011;64457;51.976;9.834;2023-05-31T14:53:30;6.90;;;1.60;;